Weather at Inova Fairfax Hospital Heliport

Public forecast

Using degrees Fahrenheit for public forecast. Weather courtesy of forecast.io.

Closest aviation weather report (METAR) to Inova Fairfax Hospital Heliport

Closest report is Davison Army Air Field, 8.8 nm (16.3 km) SSE.

2024/06/15 17:55 (retrieved 9 minutes ago)

KDAA 151755Z AUTO 31010G17KT 10SM CLR 29/09 A3003 RMK AO2 SLP171 T02900091 10291 20224 55002

Closest aviation forecast (TAF) to Inova Fairfax Hospital Heliport

Forecast is more than 12 hours old.

Closest forecast is Davison Army Air Field, 8.8 nm (16.3 km) SSE.

2024/06/14 20:00 (retrieved 22 hours ago)

TAF KDAA 142000Z 1420/1602 16009KT 9999 VCSH SCT050 BKN100 QNH2980INS BECMG 1420/1421 29007KT 8000 -SHRA VCTS SCT035CB BKN060 OVC100 QNH2978INS TEMPO 1422/1502 VRB15G25KT 4800 -TSRA SCT025CB OVC035 BECMG 1505/1506 34009KT 9999 NSW FEW020 BKN080 QNH2985INS BECMG 1508/1509 35009KT 9999 FEW030 SCT060 QNH2992INS BECMG 1514/1515 35010G15KT 9999 FEW050 SCT250 QNH3002INS TX33/1420Z TN19/1509Z LAST NO AMDS AFT 1501 NEXT 1712